createdAt,value
2023-08-16T00:02:24.241Z,19.85
2023-08-16T00:05:07.774Z,19.78
2023-08-16T00:07:52.323Z,19.77
2023-08-16T00:10:35.500Z,19.77
2023-08-16T00:13:17.612Z,19.74
2023-08-16T00:16:01.028Z,19.75
2023-08-16T00:18:44.859Z,19.70
2023-08-16T00:21:27.929Z,19.69
2023-08-16T00:24:12.397Z,19.69
2023-08-16T00:26:55.514Z,19.68
2023-08-16T00:29:38.612Z,19.66
2023-08-16T00:32:21.739Z,19.63
2023-08-16T00:35:04.905Z,19.54
2023-08-16T00:37:47.974Z,19.47
2023-08-16T00:40:32.407Z,19.42
2023-08-16T00:43:15.518Z,19.36
2023-08-16T00:45:58.705Z,19.28
2023-08-16T00:48:44.316Z,19.24
2023-08-16T00:51:27.467Z,19.15
2023-08-16T00:54:10.688Z,19.07
2023-08-16T00:56:55.393Z,19.01
2023-08-16T00:59:38.727Z,18.98
2023-08-16T01:02:22.412Z,18.91
2023-08-16T01:05:08.272Z,18.87
2023-08-16T01:07:51.759Z,18.84
2023-08-16T01:10:41.831Z,18.80
2023-08-16T01:13:31.290Z,18.81
2023-08-16T01:16:14.341Z,18.77
2023-08-16T01:18:59.624Z,18.72
2023-08-16T01:21:48.890Z,18.71
2023-08-16T01:24:39.443Z,18.66
2023-08-16T01:27:24.548Z,18.64
2023-08-16T01:30:09.627Z,18.65
2023-08-16T01:32:52.709Z,18.66
2023-08-16T01:35:36.533Z,18.62
2023-08-16T01:38:19.692Z,18.60
2023-08-16T01:41:07.917Z,18.58
2023-08-16T01:43:53.846Z,18.52
2023-08-16T01:46:39.943Z,18.49
2023-08-16T01:49:24.850Z,18.47
2023-08-16T01:52:08.760Z,18.43
2023-08-16T01:54:51.857Z,18.39
2023-08-16T01:57:34.867Z,18.37
2023-08-16T02:00:19.730Z,18.36
2023-08-16T02:03:02.865Z,18.36
2023-08-16T02:05:46.025Z,18.42
2023-08-16T02:08:29.141Z,18.44
2023-08-16T02:11:12.242Z,18.47
2023-08-16T02:13:55.299Z,18.43
2023-08-16T02:16:39.837Z,18.39
2023-08-16T02:19:22.805Z,18.35
2023-08-16T02:22:06.031Z,18.36
2023-08-16T02:24:49.133Z,18.37
2023-08-16T02:27:34.599Z,18.37
2023-08-16T02:30:17.801Z,18.36
2023-08-16T02:33:02.388Z,18.51
2023-08-16T02:35:45.666Z,18.58
2023-08-16T02:38:29.255Z,18.57
2023-08-16T02:41:12.387Z,18.60
2023-08-16T02:43:55.598Z,18.47
2023-08-16T02:46:38.714Z,18.34
2023-08-16T02:49:23.270Z,18.24
2023-08-16T02:52:06.734Z,18.16
2023-08-16T02:54:49.923Z,18.24
2023-08-16T02:57:33.028Z,18.30
2023-08-16T03:00:17.465Z,18.17
2023-08-16T03:03:00.591Z,18.17
2023-08-16T03:05:45.223Z,18.22
2023-08-16T03:08:28.312Z,18.26
2023-08-16T03:11:11.504Z,18.28
2023-08-16T03:13:54.594Z,18.19
2023-08-16T03:16:37.812Z,18.04
2023-08-16T03:19:20.935Z,17.97
2023-08-16T03:22:05.694Z,17.92
2023-08-16T03:24:48.863Z,17.91
2023-08-16T03:27:32.017Z,17.89
2023-08-16T03:30:15.119Z,17.91
2023-08-16T03:32:58.365Z,17.91
2023-08-16T03:35:41.492Z,17.88
2023-08-16T03:38:25.972Z,17.84
2023-08-16T03:41:09.377Z,17.85
2023-08-16T03:43:52.575Z,17.93
2023-08-16T03:46:35.903Z,17.89
2023-08-16T03:49:19.055Z,17.86
2023-08-16T03:52:02.115Z,17.98
2023-08-16T03:54:46.584Z,17.97
2023-08-16T03:57:29.618Z,17.95
2023-08-16T04:00:13.360Z,17.87
2023-08-16T04:02:56.619Z,17.78
2023-08-16T04:05:39.703Z,17.82
2023-08-16T04:08:22.890Z,17.82
2023-08-16T04:11:07.488Z,17.95
2023-08-16T04:13:50.604Z,17.98
2023-08-16T04:16:33.831Z,17.88
2023-08-16T04:19:17.014Z,17.87
2023-08-16T04:22:00.105Z,17.89
2023-08-16T04:24:43.278Z,17.88
2023-08-16T04:27:27.822Z,17.85
2023-08-16T04:30:12.408Z,17.95
2023-08-16T04:32:55.561Z,18.18
2023-08-16T04:35:38.921Z,18.33
2023-08-16T04:38:22.142Z,18.51
2023-08-16T04:41:05.263Z,18.72
2023-08-16T04:43:49.736Z,18.73
2023-08-16T04:46:32.804Z,18.85
2023-08-16T04:49:16.427Z,18.95
2023-08-16T04:51:59.581Z,19.01
2023-08-16T04:54:42.653Z,19.16
2023-08-16T04:57:27.147Z,19.30
2023-08-16T05:00:13.454Z,19.51
2023-08-16T05:02:56.566Z,19.59
2023-08-16T05:05:39.826Z,19.92
2023-08-16T05:08:22.937Z,20.03
2023-08-16T05:11:06.045Z,20.25
2023-08-16T05:13:49.250Z,20.35
2023-08-16T05:16:33.819Z,20.43
2023-08-16T05:19:16.939Z,20.44
2023-08-16T05:22:00.098Z,20.60
2023-08-16T05:24:43.213Z,20.81
2023-08-16T05:27:26.499Z,20.89
2023-08-16T05:30:10.424Z,20.96
2023-08-16T05:32:56.964Z,21.06
2023-08-16T05:35:40.139Z,21.24
2023-08-16T05:38:23.900Z,21.29
2023-08-16T05:41:07.041Z,21.31
2023-08-16T05:43:50.215Z,21.28
2023-08-16T05:46:33.432Z,21.31
2023-08-16T05:49:17.979Z,21.53
2023-08-16T05:52:01.005Z,21.32
2023-08-16T05:54:44.204Z,21.28
2023-08-16T05:57:27.400Z,21.25
2023-08-16T06:00:12.061Z,21.20
2023-08-16T06:02:55.592Z,21.23
2023-08-16T06:05:41.342Z,21.21
2023-08-16T06:08:24.394Z,21.35
2023-08-16T06:11:07.852Z,21.51
2023-08-16T06:13:50.865Z,21.65
2023-08-16T06:16:33.959Z,22.04
2023-08-16T06:19:17.232Z,22.32
2023-08-16T06:22:01.760Z,22.55
2023-08-16T06:24:45.439Z,22.65
2023-08-16T06:27:28.568Z,22.72
2023-08-16T06:30:13.210Z,22.69
2023-08-16T06:32:56.297Z,22.58
2023-08-16T06:35:39.416Z,22.64
2023-08-16T06:38:23.958Z,22.83
2023-08-16T06:41:07.130Z,23.40
2023-08-16T06:43:50.259Z,23.52
2023-08-16T06:46:33.626Z,24.05
2023-08-16T06:49:16.736Z,24.34
2023-08-16T06:51:59.793Z,23.74
2023-08-16T06:54:44.310Z,23.81
2023-08-16T06:57:27.281Z,24.13
2023-08-16T07:00:12.888Z,24.40
2023-08-16T07:02:56.075Z,24.93
2023-08-16T07:05:39.220Z,25.52
2023-08-16T07:08:22.365Z,25.70
2023-08-16T07:11:06.913Z,26.28
2023-08-16T07:13:50.062Z,26.65
2023-08-16T07:16:34.854Z,27.16
2023-08-16T07:19:19.606Z,27.56
2023-08-16T07:22:02.715Z,27.99
2023-08-16T07:24:45.866Z,28.96
2023-08-16T07:27:30.442Z,29.47
2023-08-16T07:30:14.717Z,29.20
2023-08-16T07:32:57.856Z,29.31
2023-08-16T07:35:40.881Z,29.49
2023-08-16T07:38:23.913Z,29.90
2023-08-16T07:41:07.367Z,30.77
2023-08-16T07:43:53.671Z,32.69
2023-08-16T07:46:36.732Z,33.84
2023-08-16T07:49:19.864Z,33.09
2023-08-16T07:52:02.920Z,34.08
2023-08-16T07:54:46.082Z,34.15
2023-08-16T07:57:29.158Z,35.15
2023-08-16T08:00:15.788Z,36.45
2023-08-16T08:03:00.992Z,36.64
2023-08-16T08:05:44.444Z,36.96
2023-08-16T08:08:27.617Z,37.46
2023-08-16T08:11:10.748Z,37.69
2023-08-16T08:13:53.904Z,37.32
2023-08-16T08:16:38.355Z,38.20
2023-08-16T08:19:21.505Z,38.48
2023-08-16T08:22:04.880Z,38.69
2023-08-16T08:24:47.960Z,38.82
2023-08-16T08:27:31.452Z,39.14
2023-08-16T08:30:16.232Z,39.63
2023-08-16T08:33:01.515Z,38.66
2023-08-16T08:35:44.959Z,37.85
2023-08-16T08:38:28.076Z,37.08
2023-08-16T08:41:11.573Z,35.97
2023-08-16T08:43:59.836Z,35.30
2023-08-16T08:46:45.379Z,34.66
2023-08-16T08:49:30.036Z,33.84
2023-08-16T08:52:14.356Z,33.78
2023-08-16T08:54:59.856Z,33.42
2023-08-16T08:57:43.065Z,32.88
2023-08-16T09:00:29.494Z,33.17
2023-08-16T09:03:13.859Z,33.49
2023-08-16T09:05:59.765Z,33.15
2023-08-16T09:08:45.037Z,32.80
2023-08-16T09:11:28.426Z,32.48
2023-08-16T09:14:11.609Z,31.99
2023-08-16T09:16:54.745Z,31.43
2023-08-16T09:19:45.284Z,31.04
2023-08-16T09:22:30.556Z,30.55
2023-08-16T09:25:13.663Z,30.47
2023-08-16T09:27:56.810Z,30.27
2023-08-16T09:30:40.298Z,29.92
2023-08-16T09:33:24.630Z,29.69
2023-08-16T09:36:08.178Z,29.82
2023-08-16T09:38:52.656Z,29.82
2023-08-16T09:41:36.048Z,29.98
2023-08-16T09:44:21.116Z,30.75
2023-08-16T09:47:15.314Z,31.00
2023-08-16T09:50:00.282Z,31.64
2023-08-16T09:52:44.040Z,33.89
2023-08-16T09:55:34.058Z,36.25
2023-08-16T09:58:19.384Z,37.51
2023-08-16T10:01:28.545Z,38.25
2023-08-16T10:09:43.990Z,39.71
2023-08-16T10:12:29.965Z,40.86
2023-08-16T10:15:13.443Z,41.37
2023-08-16T10:17:58.379Z,41.53
2023-08-16T10:20:47.010Z,41.16
2023-08-16T10:23:30.665Z,40.95
2023-08-16T10:26:16.041Z,41.51
2023-08-16T10:29:21.089Z,40.64
2023-08-16T10:32:08.945Z,40.38
2023-08-16T10:34:56.053Z,40.83
2023-08-16T10:37:40.760Z,40.75
2023-08-16T10:40:26.726Z,40.13
2023-08-16T10:43:11.425Z,39.94
2023-08-16T10:45:57.488Z,39.58
2023-08-16T10:48:40.997Z,40.37
2023-08-16T10:51:24.204Z,40.17
2023-08-16T10:54:07.622Z,40.77
2023-08-16T10:56:50.820Z,41.45
2023-08-16T10:59:40.426Z,39.48
2023-08-16T11:02:32.624Z,38.98
2023-08-16T11:05:20.572Z,39.19
2023-08-16T11:08:04.616Z,38.12
2023-08-16T11:10:47.754Z,35.74
2023-08-16T11:13:31.348Z,34.44
2023-08-16T11:16:14.505Z,34.09
2023-08-16T11:19:18.151Z,34.15
2023-08-16T11:22:03.370Z,33.17
2023-08-16T11:24:49.032Z,32.98
2023-08-16T11:27:32.157Z,32.35
2023-08-16T11:30:15.410Z,31.71
2023-08-16T11:32:58.498Z,30.98
2023-08-16T11:35:43.109Z,30.75
2023-08-16T11:38:26.194Z,30.86
2023-08-16T11:41:09.847Z,30.94
2023-08-16T11:44:01.332Z,31.20
2023-08-16T11:46:48.607Z,30.98
2023-08-16T11:49:32.057Z,31.16
2023-08-16T11:52:22.108Z,30.71
2023-08-16T11:55:07.246Z,30.05
2023-08-16T11:57:50.692Z,30.29
2023-08-16T12:00:35.750Z,30.31
2023-08-16T12:03:19.135Z,30.40
2023-08-16T12:06:07.172Z,30.34
2023-08-16T12:08:52.669Z,30.27
2023-08-16T12:11:37.155Z,30.36
2023-08-16T12:14:20.292Z,30.08
2023-08-16T12:17:03.468Z,29.89
2023-08-16T12:19:46.585Z,29.76
2023-08-16T12:22:29.737Z,29.56
2023-08-16T12:25:14.481Z,29.50
2023-08-16T12:27:57.594Z,29.45
2023-08-16T12:30:41.043Z,29.41
2023-08-16T12:33:24.135Z,29.50
2023-08-16T12:36:07.730Z,29.52
2023-08-16T12:38:50.853Z,29.53
2023-08-16T12:41:36.152Z,29.65
2023-08-16T12:44:19.380Z,29.66
2023-08-16T12:47:02.490Z,29.60
2023-08-16T12:49:45.633Z,29.62
2023-08-16T12:52:28.689Z,29.75
2023-08-16T12:55:11.819Z,29.73
2023-08-16T13:00:46.742Z,29.74
2023-08-16T13:03:32.765Z,29.31
2023-08-16T13:06:30.432Z,28.73
2023-08-16T13:09:26.380Z,28.69
2023-08-16T13:12:12.055Z,28.59
2023-08-16T13:15:06.337Z,28.33
2023-08-16T13:18:17.919Z,28.19
2023-08-16T13:20:58.792Z,28.31
2023-08-16T13:29:25.944Z,28.14
2023-08-16T13:35:10.931Z,28.09
2023-08-16T13:38:17.316Z,28.18
2023-08-16T13:43:50.408Z,28.26
2023-08-16T13:46:36.696Z,28.14
2023-08-16T13:49:21.234Z,28.17
2023-08-16T13:52:04.353Z,28.07
2023-08-16T13:54:47.478Z,28.11
2023-08-16T13:57:30.594Z,28.01
2023-08-16T14:00:14.426Z,27.98
2023-08-16T14:02:57.562Z,27.77
2023-08-16T14:05:42.055Z,27.77
2023-08-16T14:08:25.427Z,27.94
2023-08-16T14:11:08.508Z,28.05
2023-08-16T14:13:51.623Z,28.10
2023-08-16T14:16:37.121Z,28.15
2023-08-16T14:19:21.930Z,28.32
2023-08-16T14:22:06.505Z,28.44
2023-08-16T14:24:49.644Z,28.54
2023-08-16T14:27:32.701Z,28.61
2023-08-16T14:30:15.974Z,28.52
2023-08-16T14:33:00.616Z,28.51
2023-08-16T14:35:44.896Z,28.33
2023-08-16T14:38:29.408Z,28.27
2023-08-16T14:41:12.523Z,28.21
2023-08-16T14:43:55.695Z,28.08
2023-08-16T14:46:38.864Z,28.00
2023-08-16T14:49:22.005Z,27.84
2023-08-16T14:52:05.827Z,27.61
2023-08-16T14:54:51.008Z,27.57
2023-08-16T14:57:35.331Z,27.34
2023-08-16T15:00:18.854Z,27.33
2023-08-16T15:03:05.288Z,27.20
2023-08-16T15:05:48.519Z,27.20
2023-08-16T15:08:31.964Z,26.98
2023-08-16T15:11:17.625Z,26.78
2023-08-16T15:14:01.062Z,26.77
2023-08-16T15:16:44.243Z,26.77
2023-08-16T15:19:27.381Z,26.64
2023-08-16T15:22:10.647Z,26.65
2023-08-16T15:24:54.366Z,26.63
2023-08-16T15:27:38.872Z,26.69
2023-08-16T15:30:21.956Z,26.69
2023-08-16T15:33:05.531Z,26.76
2023-08-16T15:35:48.693Z,26.67
2023-08-16T15:38:44.209Z,26.65
2023-08-16T15:41:27.350Z,26.48
2023-08-16T15:44:11.954Z,26.40
2023-08-16T15:46:55.948Z,26.29
2023-08-16T15:49:39.269Z,26.23
2023-08-16T15:52:22.364Z,26.18
2023-08-16T15:55:06.590Z,26.16
2023-08-16T15:57:49.916Z,26.10
2023-08-16T16:00:34.312Z,26.07
2023-08-16T16:03:17.404Z,26.08
2023-08-16T16:06:00.812Z,26.01
2023-08-16T16:08:43.868Z,25.98
2023-08-16T16:11:29.495Z,25.95
2023-08-16T16:14:12.914Z,25.87
2023-08-16T16:17:25.638Z,25.79
2023-08-16T16:20:11.737Z,25.68
2023-08-16T16:22:56.925Z,25.65
2023-08-16T16:25:40.318Z,25.59
2023-08-16T16:28:23.389Z,25.60
2023-08-16T16:31:07.387Z,25.52
2023-08-16T16:33:51.970Z,25.45
2023-08-16T16:36:35.024Z,25.43
2023-08-16T16:39:18.145Z,25.38
2023-08-16T16:42:02.618Z,25.33
2023-08-16T16:44:46.069Z,25.17
2023-08-16T16:47:29.394Z,25.15
2023-08-16T16:50:13.908Z,25.10
2023-08-16T16:52:57.087Z,25.02
2023-08-16T16:55:40.480Z,24.92
2023-08-16T16:58:23.489Z,24.86
2023-08-16T17:01:06.801Z,24.86
2023-08-16T17:03:50.106Z,24.77
2023-08-16T17:06:34.616Z,24.74
2023-08-16T17:09:17.718Z,24.65
2023-08-16T17:12:01.621Z,24.55
2023-08-16T17:14:44.802Z,24.44
2023-08-16T17:17:28.368Z,24.40
2023-08-16T17:20:12.364Z,24.32
2023-08-16T17:22:57.307Z,24.28
2023-08-16T17:25:43.895Z,24.21
2023-08-16T17:28:27.077Z,24.12
2023-08-16T17:31:11.916Z,24.07
2023-08-16T17:33:55.949Z,23.98
2023-08-16T17:36:39.096Z,24.00
2023-08-16T17:39:24.703Z,23.87
2023-08-16T17:42:07.951Z,23.85
2023-08-16T17:44:51.196Z,23.84
2023-08-16T17:47:37.164Z,23.80
2023-08-16T17:50:21.340Z,23.76
2023-08-16T17:53:04.635Z,23.74
2023-08-16T17:55:49.229Z,23.77
2023-08-16T17:58:32.754Z,23.77
2023-08-16T18:01:16.632Z,23.80
2023-08-16T18:03:59.898Z,23.81
2023-08-16T18:06:43.102Z,23.78
2023-08-16T18:09:26.355Z,23.76
2023-08-16T18:12:11.410Z,23.75
2023-08-16T18:14:54.585Z,23.79
2023-08-16T18:17:37.747Z,23.86
2023-08-16T18:20:21.561Z,23.86
2023-08-16T18:23:04.955Z,23.84
2023-08-16T18:25:48.121Z,23.87
2023-08-16T18:28:32.671Z,23.92
2023-08-16T18:31:16.423Z,23.95
2023-08-16T18:34:00.295Z,23.91
2023-08-16T18:36:43.362Z,23.90
2023-08-16T18:39:27.003Z,23.85
2023-08-16T18:42:10.315Z,23.82
2023-08-16T18:44:54.874Z,23.78
2023-08-16T18:47:38.380Z,23.76
2023-08-16T18:50:22.300Z,23.74
2023-08-16T18:53:05.769Z,23.72
2023-08-16T18:55:49.068Z,23.70
2023-08-16T18:58:32.142Z,23.71
2023-08-16T19:01:18.835Z,23.84
2023-08-16T19:04:02.071Z,23.90
2023-08-16T19:06:45.265Z,23.84
2023-08-16T19:09:28.439Z,23.87
2023-08-16T19:12:11.648Z,23.86
2023-08-16T19:14:54.740Z,23.80
2023-08-16T19:17:40.831Z,23.70
2023-08-16T19:20:23.970Z,23.58
2023-08-16T19:23:07.215Z,23.56
2023-08-16T19:25:50.311Z,23.54
2023-08-16T19:28:34.235Z,23.53
2023-08-16T19:31:17.288Z,23.42
2023-08-16T19:34:01.988Z,23.41
2023-08-16T19:36:45.507Z,23.52
2023-08-16T19:39:28.808Z,23.62
2023-08-16T19:42:11.911Z,23.56
2023-08-16T19:44:55.232Z,23.66
2023-08-16T19:47:38.437Z,23.64
2023-08-16T19:50:24.594Z,23.67
2023-08-16T19:53:08.029Z,23.65
2023-08-16T19:55:54.148Z,23.60
2023-08-16T19:58:37.321Z,23.54
2023-08-16T20:01:23.193Z,23.41
2023-08-16T20:04:06.651Z,23.36
2023-08-16T20:06:51.243Z,23.29
2023-08-16T20:09:34.404Z,23.22
2023-08-16T20:12:17.573Z,23.26
2023-08-16T20:15:01.128Z,23.22
2023-08-16T20:17:44.462Z,23.17
2023-08-16T20:20:27.696Z,23.12
2023-08-16T20:23:12.197Z,23.03
2023-08-16T20:25:55.329Z,22.94
2023-08-16T20:28:38.764Z,22.92
2023-08-16T20:31:21.987Z,22.87
2023-08-16T20:34:05.448Z,22.84
2023-08-16T20:36:48.676Z,22.82
2023-08-16T20:39:33.698Z,22.79
2023-08-16T20:42:33.451Z,22.72
2023-08-16T20:45:16.750Z,22.68
2023-08-16T20:47:59.976Z,22.67
2023-08-16T20:50:43.146Z,22.68
2023-08-16T20:53:26.373Z,22.56
2023-08-16T20:56:10.902Z,22.47
2023-08-16T20:58:53.977Z,22.48
2023-08-16T21:01:42.136Z,22.38
2023-08-16T21:04:26.883Z,22.32
2023-08-16T21:07:10.318Z,22.23
2023-08-16T21:09:54.291Z,22.19
2023-08-16T21:12:38.801Z,22.11
2023-08-16T21:15:21.956Z,22.05
2023-08-16T21:18:05.539Z,22.06
2023-08-16T21:20:48.765Z,21.99
2023-08-16T21:23:31.787Z,21.98
2023-08-16T21:26:14.902Z,21.95
2023-08-16T21:28:59.565Z,21.94
2023-08-16T21:31:42.820Z,21.96
2023-08-16T21:34:26.050Z,22.03
2023-08-16T21:37:09.219Z,21.96
2023-08-16T21:39:52.675Z,21.97
2023-08-16T21:42:38.898Z,21.93
2023-08-16T21:45:23.378Z,21.85
2023-08-16T21:48:07.683Z,21.81
2023-08-16T21:50:50.832Z,21.68
2023-08-16T21:53:33.861Z,21.69
2023-08-16T21:56:19.021Z,21.73
2023-08-16T21:59:02.108Z,21.69
2023-08-16T22:01:46.596Z,21.69
2023-08-16T22:04:30.114Z,21.64
2023-08-16T22:07:13.197Z,21.59
2023-08-16T22:09:56.296Z,21.56
2023-08-16T22:12:39.327Z,21.49
2023-08-16T22:15:24.717Z,21.43
2023-08-16T22:18:09.252Z,21.39
2023-08-16T22:21:02.222Z,21.39
2023-08-16T22:23:47.429Z,21.28
2023-08-16T22:26:30.535Z,21.20
2023-08-16T22:29:14.100Z,21.19
2023-08-16T22:31:57.243Z,21.17
2023-08-16T22:34:41.742Z,21.11
2023-08-16T22:37:25.295Z,21.13
2023-08-16T22:40:10.092Z,21.05
2023-08-16T22:42:53.178Z,21.07
2023-08-16T22:45:36.288Z,21.00
2023-08-16T22:48:19.389Z,20.99
2023-08-16T22:51:04.074Z,20.96
2023-08-16T22:53:47.139Z,20.99
2023-08-16T22:56:30.434Z,21.01
2023-08-16T22:59:13.556Z,21.03
2023-08-16T23:01:56.863Z,21.03
2023-08-16T23:04:39.948Z,21.08
2023-08-16T23:07:24.691Z,21.02
2023-08-16T23:10:09.536Z,21.07
2023-08-16T23:12:52.660Z,21.03
2023-08-16T23:15:35.887Z,21.02
2023-08-16T23:18:18.991Z,21.01
2023-08-16T23:21:02.233Z,20.94
2023-08-16T23:23:46.805Z,20.96
2023-08-16T23:26:29.934Z,20.93
2023-08-16T23:29:12.979Z,20.82
2023-08-16T23:31:56.109Z,20.75
2023-08-16T23:34:39.256Z,20.74
2023-08-16T23:37:22.431Z,20.69
2023-08-16T23:40:08.326Z,20.71
2023-08-16T23:42:52.426Z,20.62
2023-08-16T23:45:35.547Z,20.54
2023-08-16T23:48:18.687Z,20.48
2023-08-16T23:51:01.854Z,20.48
2023-08-16T23:53:44.916Z,20.41
2023-08-16T23:56:29.674Z,20.32
2023-08-16T23:59:12.775Z,20.29
